Time;durP1;ratioP1;P1;durP2;ratioP2;P2;SDS_P1;SDS_P2;PMS_P1;PMS_P2;Temp;Humidity;BMP_temperature;BMP_pressure;BME280_temperature;BME280_humidity;BME280_pressure;Samples;Min_cycle;Max_cycle;Signal;HPM_P1;HPM_P2
2023/01/11 00:02:09;;;;;;;17.20;7.07;;;7.80;92.50;;;;;;5075026;28;20033;-68
2023/01/11 00:04:35;;;;;;;18.10;7.53;;;7.70;92.80;;;;;;5064983;28;20215;-68
2023/01/11 00:07:01;;;;;;;17.93;7.37;;;7.70;93.00;;;;;;5075609;28;20131;-68
2023/01/11 00:09:26;;;;;;;20.07;7.27;;;7.70;93.30;;;;;;5073207;28;20087;-68
2023/01/11 00:11:53;;;;;;;17.70;7.87;;;7.70;93.10;;;;;;5077280;28;20123;-68
2023/01/11 00:14:19;;;;;;;12.48;6.28;;;7.60;93.70;;;;;;5075098;28;20024;-68
2023/01/11 00:16:45;;;;;;;13.77;5.67;;;7.60;93.60;;;;;;5067301;28;20400;-68
2023/01/11 00:19:11;;;;;;;14.37;5.80;;;7.60;93.40;;;;;;5075213;28;20285;-68
2023/01/11 00:21:36;;;;;;;12.70;5.37;;;7.70;93.10;;;;;;5068586;28;20111;-71
2023/01/11 00:24:02;;;;;;;19.80;6.47;;;7.70;92.80;;;;;;5073494;28;20055;-73
2023/01/11 00:26:27;;;;;;;12.93;5.10;;;7.70;92.80;;;;;;5070850;28;20031;-68
2023/01/11 00:28:53;;;;;;;11.50;4.93;;;7.70;92.80;;;;;;5074429;28;20075;-72
2023/01/11 00:31:19;;;;;;;11.33;5.23;;;7.70;93.20;;;;;;5057234;28;20068;-73
2023/01/11 00:33:44;;;;;;;18.27;5.83;;;7.70;93.10;;;;;;5075508;28;20835;-73
2023/01/11 00:36:10;;;;;;;15.37;6.10;;;7.70;92.70;;;;;;5073842;28;20078;-72
2023/01/11 00:38:52;;;;;;;16.20;5.63;;;7.70;93.20;;;;;;5076285;28;20028;-73
2023/01/11 00:49:34;;;;;;;17.63;6.63;;;7.60;93.70;;;;;;5070023;28;20539;-70
2023/01/11 00:52:00;;;;;;;15.15;6.32;;;7.70;93.80;;;;;;5072905;28;20047;-68
2023/01/11 00:54:26;;;;;;;19.30;6.68;;;7.60;93.60;;;;;;5074731;28;20075;-69
2023/01/11 00:56:51;;;;;;;16.38;5.95;;;7.60;93.50;;;;;;5076387;28;20051;-68
2023/01/11 00:59:17;;;;;;;16.90;6.80;;;7.50;93.90;;;;;;5072414;28;20068;-68
2023/01/11 01:01:43;;;;;;;20.27;6.85;;;7.40;93.90;;;;;;5073700;28;20032;-72
2023/01/11 01:04:08;;;;;;;11.60;6.17;;;7.40;94.30;;;;;;5070364;28;20028;-68
2023/01/11 01:06:34;;;;;;;13.87;6.27;;;7.30;94.50;;;;;;5072581;28;20089;-68
2023/01/11 01:09:00;;;;;;;17.67;6.33;;;7.20;94.70;;;;;;5078077;28;20036;-68
2023/01/11 01:11:25;;;;;;;18.77;6.40;;;7.10;94.80;;;;;;5068199;28;20032;-68
2023/01/11 01:16:36;;;;;;;15.38;7.18;;;7.10;95.10;;;;;;5064942;28;20030;-68
2023/01/11 01:19:02;;;;;;;14.93;6.05;;;7.00;95.50;;;;;;5074072;28;20032;-68
2023/01/11 01:21:28;;;;;;;16.33;6.30;;;7.00;95.20;;;;;;5073030;28;20020;-68
2023/01/11 01:23:54;;;;;;;15.48;6.72;;;7.00;95.20;;;;;;5070107;28;20082;-69
2023/01/11 01:26:21;;;;;;;12.02;5.72;;;7.00;95.40;;;;;;5081798;28;20036;-71
2023/01/11 01:28:46;;;;;;;;;;;7.00;95.40;;;;;;5070942;28;20035;-68
2023/01/11 01:31:12;;;;;;;14.90;5.95;;;7.10;95.50;;;;;;5077329;28;19912;-71
2023/01/11 01:33:38;;;;;;;13.52;6.57;;;7.10;95.50;;;;;;5068710;28;20100;-69
2023/01/11 01:36:04;;;;;;;16.90;6.53;;;7.10;95.40;;;;;;5072046;28;20126;-69
2023/01/11 01:38:30;;;;;;;;;;;7.00;95.70;;;;;;5069577;28;20274;-71
2023/01/11 01:40:56;;;;;;;14.50;6.50;;;6.80;96.10;;;;;;5077213;28;19922;-68
2023/01/11 01:43:42;;;;;;;17.20;7.15;;;6.60;96.50;;;;;;5071958;28;20037;-71
2023/01/11 01:46:08;;;;;;;13.20;5.60;;;6.50;96.80;;;;;;5066942;28;20066;-72
2023/01/11 01:48:36;;;;;;;15.90;5.90;;;6.40;97.00;;;;;;5073198;28;20058;-70
2023/01/11 01:51:02;;;;;;;14.25;5.85;;;6.40;97.00;;;;;;5073250;28;20458;-72
2023/01/11 01:53:42;;;;;;;10.23;5.50;;;6.30;97.40;;;;;;5072417;28;20352;-71
2023/01/11 01:56:21;;;;;;;11.00;5.68;;;6.20;97.70;;;;;;5067869;28;20090;-72
2023/01/11 01:58:51;;;;;;;11.00;5.30;;;6.20;97.70;;;;;;5074546;28;20094;-71
2023/01/11 02:04:07;;;;;;;9.73;4.47;;;6.00;98.00;;;;;;5071605;28;20047;-67
2023/01/11 02:06:33;;;;;;;11.63;5.15;;;6.00;98.70;;;;;;5070463;28;20107;-70
2023/01/11 02:09:06;;;;;;;12.23;5.47;;;5.90;98.60;;;;;;5074449;28;20035;-68
2023/01/11 02:11:33;;;;;;;8.88;4.50;;;5.90;98.70;;;;;;5068269;28;20054;-68
2023/01/11 02:14:03;;;;;;;11.70;5.00;;;5.90;98.70;;;;;;5070715;28;20033;-68
2023/01/11 02:16:29;;;;;;;11.80;5.28;;;5.80;98.70;;;;;;5069675;28;20039;-69
2023/01/11 02:18:56;;;;;;;14.27;5.35;;;5.80;98.80;;;;;;5070594;28;20017;-69
2023/01/11 02:21:44;;;;;;;10.70;4.88;;;5.70;98.70;;;;;;5074196;28;20051;-68
2023/01/11 02:24:22;;;;;;;12.73;4.75;;;5.70;99.20;;;;;;5066199;28;20099;-68
2023/01/11 02:27:31;;;;;;;11.13;4.50;;;5.70;99.50;;;;;;5070720;28;20032;-69
2023/01/11 02:30:18;;;;;;;13.98;4.85;;;5.50;99.60;;;;;;5043532;28;20052;-71
2023/01/11 02:32:56;;;;;;;8.80;4.82;;;5.60;99.80;;;;;;5063477;28;20055;-71
2023/01/11 02:35:38;;;;;;;12.77;6.53;;;5.60;99.70;;;;;;5071130;28;20029;-72
2023/01/11 02:38:36;;;;;;;14.15;5.50;;;5.50;99.40;;;;;;5068662;28;20124;-69
2023/01/11 02:41:23;;;;;;;14.23;5.32;;;5.50;99.50;;;;;;5076650;28;20515;-71
2023/01/11 02:47:01;;;;;;;14.77;5.25;;;5.40;99.80;;;;;;5060363;28;20035;-72
2023/01/11 02:49:35;;;;;;;14.70;5.22;;;5.30;99.90;;;;;;5071940;28;20024;-71
2023/01/11 02:52:29;;;;;;;12.20;5.18;;;5.20;99.90;;;;;;5069462;28;20031;-71
2023/01/11 02:54:57;;;;;;;15.40;5.82;;;5.30;99.90;;;;;;5067818;28;20496;-70
2023/01/11 02:57:26;;;;;;;11.93;5.10;;;5.20;99.90;;;;;;5074563;28;20107;-68
2023/01/11 02:59:53;;;;;;;10.88;4.55;;;5.30;99.90;;;;;;5069709;28;20039;-72
2023/01/11 03:02:19;;;;;;;14.30;4.78;;;5.30;99.90;;;;;;5072186;28;20029;-71
2023/01/11 03:04:45;;;;;;;9.53;5.07;;;5.20;99.90;;;;;;5068790;28;20055;-69
2023/01/11 03:07:38;;;;;;;11.80;5.20;;;5.30;99.90;;;;;;5073497;28;20043;-68
2023/01/11 03:10:17;;;;;;;9.68;4.65;;;5.40;99.60;;;;;;5069616;28;20033;-69
2023/01/11 03:13:19;;;;;;;11.50;4.80;;;5.60;98.90;;;;;;5062518;28;20037;-68
2023/01/11 03:16:00;;;;;;;11.23;5.00;;;5.60;98.70;;;;;;5052338;28;20051;-68
2023/01/11 03:18:56;;;;;;;9.88;4.40;;;5.70;98.30;;;;;;5067987;28;20030;-68
2023/01/11 03:21:48;;;;;;;14.63;4.90;;;5.60;98.30;;;;;;5075024;28;20527;-69
2023/01/11 03:24:52;;;;;;;10.77;4.60;;;5.60;98.80;;;;;;5066147;28;20032;-69
2023/01/11 03:27:47;;;;;;;10.98;4.60;;;5.50;99.00;;;;;;5053743;28;20488;-71
2023/01/11 03:30:29;;;;;;;12.68;4.63;;;5.40;99.40;;;;;;5060846;28;20056;-68
2023/01/11 03:33:12;;;;;;;14.27;4.75;;;5.50;98.80;;;;;;5062670;28;20082;-68
2023/01/11 03:35:43;;;;;;;12.45;5.53;;;5.40;99.10;;;;;;5064788;28;20067;-71
2023/01/11 03:38:42;;;;;;;12.57;5.82;;;5.60;98.50;;;;;;5069878;28;20270;-69
2023/01/11 03:41:11;;;;;;;;;;;5.60;98.50;;;;;;5036109;28;20051;-72
2023/01/11 03:43:38;;;;;;;11.10;5.25;;;5.60;98.60;;;;;;5069319;28;19939;-72
2023/01/11 03:46:28;;;;;;;10.88;4.35;;;5.50;98.30;;;;;;5062741;28;20025;-73
2023/01/11 03:48:59;;;;;;;16.33;5.80;;;5.50;98.30;;;;;;5065527;28;20052;-70
2023/01/11 03:51:28;;;;;;;15.68;4.32;;;5.50;98.30;;;;;;5070550;28;20042;-71
2023/01/11 03:53:59;;;;;;;11.40;4.28;;;5.50;98.30;;;;;;5070249;28;20020;-73
2023/01/11 03:56:34;;;;;;;10.40;4.25;;;5.50;98.40;;;;;;5067291;28;20047;-71
2023/01/11 03:59:00;;;;;;;10.82;4.70;;;5.40;98.50;;;;;;5064938;28;20035;-70
2023/01/11 04:01:26;;;;;;;12.88;4.50;;;5.50;98.60;;;;;;5071249;28;20423;-72
2023/01/11 04:03:51;;;;;;;11.85;5.57;;;5.50;98.30;;;;;;5072794;28;20498;-72
2023/01/11 04:06:18;;;;;;;15.73;4.77;;;5.50;98.40;;;;;;5071091;28;20744;-72
2023/01/11 04:08:43;;;;;;;11.68;4.72;;;5.60;98.20;;;;;;5069097;28;20093;-73
2023/01/11 04:11:09;;;;;;;10.40;4.77;;;5.60;98.20;;;;;;5072892;28;20033;-72
2023/01/11 04:13:34;;;;;;;9.50;5.17;;;5.60;98.60;;;;;;5067577;28;20579;-72
2023/01/11 04:16:00;;;;;;;10.00;5.33;;;5.70;97.80;;;;;;5068394;28;20111;-72
2023/01/11 04:18:26;;;;;;;13.30;6.50;;;5.70;98.20;;;;;;5069359;28;20031;-72
2023/01/11 04:20:51;;;;;;;18.27;5.73;;;5.80;97.60;;;;;;5070650;28;20068;-68
2023/01/11 04:23:17;;;;;;;12.53;5.13;;;5.80;97.70;;;;;;5069477;28;20036;-71
2023/01/11 04:25:42;;;;;;;13.97;5.43;;;5.80;97.40;;;;;;5062665;28;20032;-68
2023/01/11 04:28:08;;;;;;;11.03;5.10;;;5.80;97.60;;;;;;5078225;28;20040;-69
2023/01/11 04:30:34;;;;;;;8.77;4.30;;;5.80;97.40;;;;;;5065066;28;20123;-68
2023/01/11 04:33:00;;;;;;;12.18;4.95;;;5.90;97.10;;;;;;5063631;28;20393;-67
2023/01/11 04:35:26;;;;;;;12.03;4.60;;;5.90;97.00;;;;;;5061525;28;20035;-66
2023/01/11 04:37:56;;;;;;;11.15;4.50;;;5.90;96.80;;;;;;5068658;28;20771;-67
2023/01/11 04:40:22;;;;;;;12.48;4.15;;;5.90;97.30;;;;;;5069253;28;20035;-71
2023/01/11 04:42:48;;;;;;;;;;;6.00;96.90;;;;;;5088142;28;20021;-72
2023/01/11 04:45:13;;;;;;;9.55;4.35;;;6.00;97.00;;;;;;5071178;28;20294;-71
2023/01/11 04:47:39;;;;;;;18.37;5.53;;;6.00;96.40;;;;;;5077353;28;20028;-72
2023/01/11 04:50:05;;;;;;;12.27;4.57;;;6.10;96.60;;;;;;5082384;28;20032;-73
2023/01/11 04:52:31;;;;;;;9.90;4.45;;;6.10;96.60;;;;;;5076518;28;20028;-68
2023/01/11 04:54:56;;;;;;;8.47;4.20;;;6.10;97.40;;;;;;5069617;28;20025;-72
2023/01/11 04:57:23;;;;;;;12.57;3.90;;;6.10;96.40;;;;;;5075459;28;20017;-72
2023/01/11 04:59:48;;;;;;;;;;;6.10;96.40;;;;;;5067850;28;20049;-72
2023/01/11 05:02:15;;;;;;;10.20;5.10;;;6.10;96.50;;;;;;5074208;28;19955;-72
2023/01/11 05:04:40;;;;;;;;;;;6.00;96.80;;;;;;5071159;28;20029;-68
2023/01/11 05:07:08;;;;;;;12.75;3.97;;;6.10;96.90;;;;;;5069990;28;19923;-71
2023/01/11 05:09:33;;;;;;;13.32;4.47;;;6.20;97.00;;;;;;5072759;28;20035;-68
2023/01/11 05:11:59;;;;;;;10.35;4.95;;;6.30;96.30;;;;;;5073104;28;20029;-69
2023/01/11 05:14:25;;;;;;;10.73;4.60;;;6.30;96.10;;;;;;5049123;28;20033;-67
2023/01/11 05:16:51;;;;;;;8.57;3.83;;;6.30;95.80;;;;;;5072990;28;20041;-66
2023/01/11 05:19:17;;;;;;;5.57;3.30;;;6.20;96.30;;;;;;5045186;28;20043;-67
2023/01/11 05:21:42;;;;;;;11.02;4.00;;;6.20;95.90;;;;;;5077008;28;20373;-67
2023/01/11 05:24:11;;;;;;;11.97;4.00;;;6.20;96.20;;;;;;5069959;28;20023;-68
2023/01/11 05:26:39;;;;;;;9.38;3.97;;;6.10;95.90;;;;;;5070218;28;20373;-67
2023/01/11 05:29:07;;;;;;;10.32;3.75;;;6.10;96.10;;;;;;5075740;28;20031;-67
2023/01/11 05:31:35;;;;;;;7.63;3.92;;;6.10;96.60;;;;;;5067502;28;20057;-67
2023/01/11 05:34:01;;;;;;;10.88;4.13;;;6.10;96.90;;;;;;5069730;28;20377;-69
2023/01/11 05:36:28;;;;;;;8.13;4.05;;;6.20;97.20;;;;;;5069115;28;20025;-67
2023/01/11 05:38:54;;;;;;;;;;;6.10;97.00;;;;;;5075931;28;20032;-68
2023/01/11 05:41:22;;;;;;;14.20;5.20;;;6.20;96.80;;;;;;5068906;28;19980;-68
2023/01/11 05:46:34;;;;;;;10.40;4.90;;;6.20;97.10;;;;;;5066748;28;20047;-68
2023/01/11 05:49:00;;;;;;;12.65;5.43;;;6.20;96.90;;;;;;5076399;28;20032;-71
2023/01/11 05:51:29;;;;;;;12.50;5.22;;;6.30;96.70;;;;;;5066615;28;20488;-72
2023/01/11 05:53:55;;;;;;;8.48;4.05;;;6.30;96.90;;;;;;5050872;28;20024;-74
2023/01/11 05:56:21;;;;;;;14.07;4.72;;;6.30;97.00;;;;;;5064654;28;20039;-68
2023/01/11 05:58:48;;;;;;;9.52;4.03;;;6.30;97.00;;;;;;5038108;28;20017;-72
2023/01/11 06:01:14;;;;;;;6.53;3.33;;;6.40;97.00;;;;;;5067620;28;20031;-72
2023/01/11 06:03:40;;;;;;;10.27;3.85;;;6.40;96.90;;;;;;5073649;28;20095;-71
2023/01/11 06:06:06;;;;;;;11.97;3.27;;;6.50;96.90;;;;;;5067677;28;20189;-71
2023/01/11 06:08:32;;;;;;;9.07;4.00;;;6.50;96.70;;;;;;5068957;28;20028;-71
2023/01/11 06:10:58;;;;;;;11.07;4.07;;;6.60;96.20;;;;;;5067754;28;20051;-73
2023/01/11 06:13:27;;;;;;;8.73;3.63;;;6.60;95.90;;;;;;5071867;28;20056;-72
2023/01/11 06:16:04;;;;;;;6.57;3.53;;;6.60;95.50;;;;;;5067116;28;20033;-72
2023/01/11 06:18:33;;;;;;;12.60;3.80;;;6.70;95.60;;;;;;5066300;28;20558;-72
2023/01/11 06:20:59;;;;;;;7.43;3.33;;;6.70;95.50;;;;;;5072378;28;20085;-73
2023/01/11 06:23:27;;;;;;;6.97;3.30;;;6.70;95.20;;;;;;5069568;28;20021;-72
2023/01/11 06:25:52;;;;;;;7.35;3.80;;;6.70;94.90;;;;;;5067973;28;20437;-71
2023/01/11 06:28:18;;;;;;;12.13;4.20;;;6.70;95.30;;;;;;5074815;28;20107;-72
2023/01/11 06:30:49;;;;;;;8.03;3.93;;;6.70;95.30;;;;;;5068922;28;20051;-73
2023/01/11 06:33:15;;;;;;;10.25;4.50;;;6.70;95.60;;;;;;5064446;28;20103;-72
2023/01/11 06:35:42;;;;;;;10.57;4.40;;;6.60;95.90;;;;;;5068501;28;20100;-73
2023/01/11 06:38:10;;;;;;;9.55;4.30;;;6.60;95.70;;;;;;5068120;28;20020;-67
2023/01/11 06:40:38;;;;;;;18.10;4.53;;;6.70;95.90;;;;;;5071755;28;20025;-67
2023/01/11 06:43:04;;;;;;;13.27;4.40;;;6.70;96.00;;;;;;5068866;28;20016;-69
2023/01/11 06:45:30;;;;;;;12.18;4.75;;;6.60;96.60;;;;;;5073197;28;20022;-67
2023/01/11 06:47:56;;;;;;;11.02;5.53;;;6.60;96.00;;;;;;5070521;28;20040;-68
2023/01/11 06:50:22;;;;;;;7.07;4.13;;;6.70;95.80;;;;;;5065220;28;20428;-66
2023/01/11 06:52:55;;;;;;;9.18;4.38;;;6.70;95.90;;;;;;5069676;28;20033;-66
2023/01/11 06:55:21;;;;;;;12.80;5.00;;;6.70;96.00;;;;;;5062044;28;20030;-73
2023/01/11 06:57:47;;;;;;;12.18;4.50;;;6.70;96.20;;;;;;5063920;28;20033;-71
2023/01/11 07:00:14;;;;;;;7.83;4.57;;;6.70;96.10;;;;;;5067160;28;21075;-72
2023/01/11 07:02:39;;;;;;;;;;;6.70;96.30;;;;;;5062691;28;20025;-72
2023/01/11 07:05:05;;;;;;;16.52;6.00;;;6.70;96.60;;;;;;5065895;28;19911;-72
2023/01/11 07:07:30;;;;;;;9.80;5.00;;;6.70;96.20;;;;;;5065099;28;20036;-72
2023/01/11 07:09:56;;;;;;;11.83;5.73;;;6.70;95.80;;;;;;5067062;28;20298;-72
2023/01/11 07:12:21;;;;;;;10.10;4.90;;;6.70;96.30;;;;;;5065806;28;20054;-73
2023/01/11 07:14:47;;;;;;;8.90;4.63;;;6.70;96.10;;;;;;5068020;28;20476;-71
2023/01/11 07:17:13;;;;;;;12.87;4.97;;;6.70;96.00;;;;;;5071108;28;20029;-72
2023/01/11 07:19:38;;;;;;;6.67;3.97;;;6.70;96.00;;;;;;5066609;28;20108;-70
2023/01/11 07:22:04;;;;;;;11.73;4.33;;;6.60;96.10;;;;;;5061042;28;20404;-67
2023/01/11 07:24:29;;;;;;;9.87;5.00;;;6.60;96.00;;;;;;5063919;28;20034;-67
2023/01/11 07:26:58;;;;;;;11.63;4.57;;;6.60;96.10;;;;;;5062356;28;20033;-67
2023/01/11 07:29:24;;;;;;;8.93;4.15;;;6.50;96.40;;;;;;5070737;28;20022;-69
2023/01/11 07:31:49;;;;;;;19.83;5.50;;;6.40;96.50;;;;;;5066530;28;20024;-70
2023/01/11 07:34:15;;;;;;;14.30;5.17;;;6.40;96.80;;;;;;5071980;28;20484;-69
2023/01/11 07:36:41;;;;;;;10.73;4.37;;;6.30;96.70;;;;;;5064974;28;20736;-68
2023/01/11 07:39:07;;;;;;;8.43;4.20;;;6.30;96.70;;;;;;5072403;28;20103;-68
2023/01/11 07:44:16;;;;;;;10.70;4.10;;;6.50;96.50;;;;;;5067937;28;20101;-67
2023/01/11 07:46:42;;;;;;;9.33;3.67;;;6.70;95.50;;;;;;5070868;28;20074;-67
2023/01/11 07:49:08;;;;;;;11.17;4.30;;;6.70;95.60;;;;;;5063760;28;20089;-67
2023/01/11 07:51:33;;;;;;;13.17;4.47;;;6.80;95.60;;;;;;5076907;28;20044;-68
2023/01/11 07:54:02;;;;;;;11.57;4.50;;;6.80;95.90;;;;;;5074139;28;20074;-67
2023/01/11 07:56:29;;;;;;;13.98;5.70;;;6.80;96.00;;;;;;5066408;28;20032;-68
2023/01/11 07:58:55;;;;;;;10.23;5.10;;;6.90;96.10;;;;;;5071007;28;20493;-68
2023/01/11 08:01:22;;;;;;;6.47;3.75;;;6.90;95.30;;;;;;5077743;28;20486;-69
2023/01/11 08:03:48;;;;;;;7.72;3.85;;;7.00;94.80;;;;;;5074570;28;20043;-70
2023/01/11 08:06:13;;;;;;;8.60;4.20;;;7.10;94.60;;;;;;5070393;28;20029;-72
2023/01/11 08:08:40;;;;;;;9.83;4.90;;;7.10;94.90;;;;;;5067861;28;20278;-70
2023/01/11 08:16:34;;;;;;;13.27;5.63;;;7.40;95.10;;;;;;5075989;28;20114;-71
2023/01/11 08:19:00;;;;;;;10.30;5.37;;;7.40;95.20;;;;;;5073281;28;20020;-71
2023/01/11 08:21:26;;;;;;;8.57;4.03;;;7.50;95.00;;;;;;5085570;28;20105;-70
2023/01/11 08:23:56;;;;;;;11.85;4.25;;;7.60;93.90;;;;;;5067687;28;20029;-70
2023/01/11 08:26:23;;;;;;;11.20;4.20;;;7.60;93.70;;;;;;5069610;28;20193;-70
2023/01/11 08:28:49;;;;;;;9.88;4.10;;;7.60;94.80;;;;;;5067694;28;20020;-71
2023/01/11 08:31:15;;;;;;;20.65;4.15;;;7.80;94.10;;;;;;5070101;28;20067;-71
2023/01/11 08:33:40;;;;;;;8.50;4.13;;;7.90;93.50;;;;;;5072055;28;20480;-70
2023/01/11 08:36:08;;;;;;;10.30;4.37;;;7.90;93.40;;;;;;5065100;28;20284;-70
2023/01/11 08:38:34;;;;;;;9.30;4.40;;;8.00;93.40;;;;;;5063291;28;20100;-70
2023/01/11 08:41:00;;;;;;;10.70;4.18;;;8.10;93.40;;;;;;5072915;28;20434;-70
2023/01/11 08:43:27;;;;;;;8.27;4.55;;;8.10;93.10;;;;;;5073339;28;20020;-69
2023/01/11 08:45:52;;;;;;;7.40;3.88;;;8.20;93.10;;;;;;5071241;28;20102;-72
2023/01/11 08:48:18;;;;;;;10.63;5.67;;;8.20;92.30;;;;;;5066490;28;20491;-72
2023/01/11 08:50:44;;;;;;;8.73;4.33;;;8.10;92.60;;;;;;5071597;28;20086;-75
2023/01/11 08:53:10;;;;;;;11.30;4.60;;;8.10;93.20;;;;;;5071730;28;20278;-78
2023/01/11 08:55:36;;;;;;;6.15;3.53;;;8.00;92.50;;;;;;5069707;28;20406;-73
2023/01/11 08:58:02;;;;;;;10.70;3.90;;;8.10;92.60;;;;;;5069252;28;20036;-72
2023/01/11 09:00:27;;;;;;;9.10;4.53;;;8.10;92.80;;;;;;5074459;28;20063;-67
2023/01/11 09:02:53;;;;;;;6.83;3.30;;;8.20;92.60;;;;;;5077894;28;20738;-68
2023/01/11 09:05:19;;;;;;;10.47;4.03;;;8.20;92.70;;;;;;5073922;28;20079;-72
2023/01/11 09:07:45;;;;;;;12.45;4.28;;;8.30;92.80;;;;;;5070774;28;20035;-73
2023/01/11 09:10:10;;;;;;;6.67;3.67;;;8.30;92.90;;;;;;5080575;28;20040;-71
2023/01/11 09:12:36;;;;;;;10.77;4.20;;;8.40;92.90;;;;;;5081075;28;20115;-72
2023/01/11 09:15:04;;;;;;;6.80;3.73;;;8.40;92.30;;;;;;5093135;28;20556;-73
2023/01/11 09:17:30;;;;;;;10.38;3.72;;;8.40;92.80;;;;;;5078061;28;20047;-71
2023/01/11 09:19:56;;;;;;;14.70;4.30;;;8.40;92.50;;;;;;5073149;28;20024;-71
2023/01/11 09:22:22;;;;;;;12.37;5.13;;;8.50;92.70;;;;;;5072919;28;20040;-74
2023/01/11 09:24:48;;;;;;;14.70;5.13;;;8.50;92.30;;;;;;5063165;28;20262;-73
2023/01/11 09:27:14;;;;;;;15.70;4.67;;;8.70;92.80;;;;;;5066020;28;20097;-73
2023/01/11 09:29:39;;;;;;;12.50;4.90;;;8.80;92.40;;;;;;5069289;28;20095;-76
2023/01/11 09:32:05;;;;;;;11.17;4.70;;;9.00;92.80;;;;;;5069327;28;20052;-67
2023/01/11 09:34:30;;;;;;;15.80;4.13;;;9.00;91.90;;;;;;5070310;28;20032;-71
2023/01/11 09:36:59;;;;;;;10.30;4.53;;;8.90;92.10;;;;;;5066380;28;20033;-71
2023/01/11 09:39:26;;;;;;;11.25;4.88;;;9.00;92.50;;;;;;5072200;28;20044;-68
2023/01/11 09:41:59;;;;;;;6.97;4.10;;;9.10;92.30;;;;;;5071640;28;20523;-68
2023/01/11 09:44:28;;;;;;;9.45;4.57;;;8.90;93.40;;;;;;5065093;28;20028;-68
2023/01/11 09:47:02;;;;;;;8.80;3.97;;;8.90;93.50;;;;;;5067544;28;20508;-68
2023/01/11 09:49:33;;;;;;;11.88;4.15;;;8.90;93.70;;;;;;5069536;28;20013;-68
2023/01/11 09:52:28;;;;;;;7.95;3.90;;;8.90;94.00;;;;;;5071952;28;20064;-69
2023/01/11 09:54:56;;;;;;;8.88;4.07;;;8.90;94.50;;;;;;5069249;28;20527;-66
2023/01/11 09:57:54;;;;;;;7.78;3.55;;;9.00;94.50;;;;;;5068893;28;20111;-72
2023/01/11 10:00:19;;;;;;;;;;;9.10;94.30;;;;;;5067373;28;20605;-67
2023/01/11 10:02:58;;;;;;;8.23;4.47;;;9.20;95.00;;;;;;5086157;28;20530;-67
2023/01/11 10:05:30;;;;;;;8.27;4.35;;;9.40;95.00;;;;;;5072611;28;20496;-67
2023/01/11 10:07:57;;;;;;;12.75;5.43;;;9.40;94.90;;;;;;5066031;28;20764;-67
2023/01/11 10:10:35;;;;;;;;;;;9.50;94.40;;;;;;5068354;28;20037;-66
2023/01/11 10:13:21;;;;;;;9.95;4.05;;;9.50;93.60;;;;;;5072140;28;20291;-65
2023/01/11 10:16:08;;;;;;;7.80;5.35;;;9.50;94.90;;;;;;5077328;28;20029;-67
2023/01/11 10:18:57;;;;;;;10.93;4.78;;;9.40;95.10;;;;;;5063625;28;20444;-66
2023/01/11 10:21:53;;;;;;;11.70;4.85;;;9.30;94.80;;;;;;5074406;28;20536;-69
2023/01/11 10:24:37;;;;;;;10.50;4.75;;;9.40;95.70;;;;;;5067848;28;20021;-70
2023/01/11 10:27:13;;;;;;;9.88;4.25;;;9.30;95.60;;;;;;5065721;28;20043;-66
2023/01/11 10:33:12;;;;;;;12.68;5.38;;;9.30;95.20;;;;;;5066841;28;20408;-72
2023/01/11 10:39:34;;;;;;;23.35;9.88;;;9.40;96.10;;;;;;5070264;28;20078;-71
2023/01/11 10:42:14;;;;;;;34.78;15.48;;;9.40;97.10;;;;;;5070358;28;20115;-72
2023/01/11 10:45:15;;;;;;;26.42;10.68;;;9.40;96.60;;;;;;5073669;28;20032;-71
2023/01/11 10:48:06;;;;;;;18.17;7.57;;;9.30;97.00;;;;;;5033770;28;20035;-67
2023/01/11 10:50:50;;;;;;;17.60;6.68;;;9.30;97.20;;;;;;5030210;28;20136;-71
2023/01/11 10:53:31;;;;;;;8.60;4.30;;;9.30;97.00;;;;;;5075455;28;20111;-68
2023/01/11 10:56:08;;;;;;;9.00;4.10;;;9.30;97.30;;;;;;5075405;28;20117;-68
2023/01/11 10:58:45;;;;;;;9.23;4.30;;;9.20;97.10;;;;;;5061513;28;20078;-69
2023/01/11 11:01:27;;;;;;;9.27;4.75;;;9.20;97.00;;;;;;5076536;28;20491;-71
2023/01/11 11:04:28;;;;;;;8.93;5.18;;;9.20;97.40;;;;;;5074525;28;20056;-72
2023/01/11 11:07:14;;;;;;;11.65;4.50;;;9.20;97.10;;;;;;5077860;28;20036;-70
2023/01/11 11:10:20;;;;;;;7.28;4.38;;;9.20;97.00;;;;;;5072403;28;20365;-69
2023/01/11 11:13:05;;;;;;;8.10;4.53;;;9.00;97.60;;;;;;5068208;28;20105;-73
2023/01/11 11:15:49;;;;;;;7.78;4.22;;;9.00;97.40;;;;;;5065763;28;20021;-70
2023/01/11 11:18:15;;;;;;;10.88;4.65;;;9.00;98.40;;;;;;5064536;28;20569;-66
2023/01/11 11:20:42;;;;;;;12.20;4.80;;;9.10;97.70;;;;;;5068857;28;20021;-68
2023/01/11 11:23:14;;;;;;;9.77;4.95;;;9.20;98.00;;;;;;5066115;28;20044;-73
2023/01/11 11:25:41;;;;;;;8.02;4.05;;;9.20;98.50;;;;;;5071225;28;20017;-70
2023/01/11 11:28:13;;;;;;;9.40;5.00;;;9.20;98.90;;;;;;5063663;28;20036;-66
2023/01/11 11:30:42;;;;;;;10.68;5.45;;;9.20;99.00;;;;;;5069453;28;20056;-69
2023/01/11 11:33:23;;;;;;;14.32;5.25;;;9.20;99.00;;;;;;5066218;28;20025;-67
2023/01/11 11:36:03;;;;;;;18.17;5.00;;;9.10;99.00;;;;;;5064714;28;20396;-71
2023/01/11 11:38:32;;;;;;;9.70;4.90;;;9.00;99.70;;;;;;5071295;28;20791;-66
2023/01/11 11:41:07;;;;;;;8.82;4.65;;;8.90;99.90;;;;;;5066791;28;20024;-66
2023/01/11 11:43:37;;;;;;;8.93;4.72;;;8.90;99.90;;;;;;5068650;28;20062;-65
2023/01/11 11:46:25;;;;;;;11.13;4.30;;;8.80;99.80;;;;;;5070454;28;20026;-67
2023/01/11 11:49:16;;;;;;;8.40;4.40;;;8.70;99.90;;;;;;5072611;28;20078;-66
2023/01/11 11:51:44;;;;;;;8.73;4.60;;;8.70;99.90;;;;;;5062713;28;20081;-66
2023/01/11 11:54:40;;;;;;;8.45;4.60;;;8.70;99.90;;;;;;5074914;28;20020;-66
2023/01/11 11:57:35;;;;;;;10.07;4.53;;;8.60;99.90;;;;;;5081140;28;20510;-66
2023/01/11 12:00:07;;;;;;;8.68;4.43;;;8.60;99.90;;;;;;5076678;28;20028;-65
2023/01/11 12:02:35;;;;;;;7.55;4.28;;;8.40;99.90;;;;;;5073367;28;20065;-66
2023/01/11 12:05:07;;;;;;;8.30;4.80;;;8.50;99.90;;;;;;5075903;28;20039;-65
2023/01/11 12:07:44;;;;;;;12.75;4.70;;;8.60;99.90;;;;;;5066142;28;20066;-66
2023/01/11 12:10:16;;;;;;;12.77;5.70;;;8.60;99.90;;;;;;5074010;28;20697;-65
2023/01/11 12:12:55;;;;;;;9.05;5.57;;;8.50;99.90;;;;;;5066453;28;20036;-65
2023/01/11 12:15:29;;;;;;;12.98;4.75;;;8.40;99.90;;;;;;5063307;28;20083;-66
2023/01/11 12:18:31;;;;;;;9.07;4.65;;;8.40;99.90;;;;;;5064565;28;20033;-67
2023/01/11 12:21:16;;;;;;;7.53;4.72;;;8.30;99.90;;;;;;5065482;28;20028;-66
2023/01/11 12:23:43;;;;;;;9.98;5.05;;;8.30;99.90;;;;;;5063044;28;20032;-66
2023/01/11 12:26:26;;;;;;;9.65;4.95;;;8.40;99.90;;;;;;5064231;28;20052;-67
2023/01/11 12:29:03;;;;;;;9.80;5.07;;;8.30;99.90;;;;;;5058006;28;20047;-66
2023/01/11 12:31:45;;;;;;;9.90;4.50;;;8.30;99.90;;;;;;5063426;28;20672;-67
2023/01/11 12:34:47;;;;;;;9.32;5.20;;;8.40;99.90;;;;;;5063942;28;20761;-67
2023/01/11 12:37:23;;;;;;;11.90;5.00;;;8.40;99.90;;;;;;5065764;28;20063;-67
2023/01/11 12:39:59;;;;;;;8.80;4.95;;;8.40;99.90;;;;;;5064686;28;20664;-69
2023/01/11 12:42:49;;;;;;;9.63;5.10;;;8.40;99.90;;;;;;5065443;28;20119;-68
2023/01/11 12:45:31;;;;;;;9.93;4.72;;;8.40;99.90;;;;;;5066163;28;20033;-66
2023/01/11 12:48:22;;;;;;;15.18;5.50;;;8.30;99.90;;;;;;5063813;28;20104;-68
2023/01/11 12:50:56;;;;;;;9.15;4.60;;;8.40;99.90;;;;;;5066043;28;20265;-69
2023/01/11 12:53:48;;;;;;;8.50;5.00;;;8.40;99.90;;;;;;5061534;28;20088;-69
2023/01/11 12:56:25;;;;;;;17.10;6.82;;;8.40;99.90;;;;;;5068059;28;20032;-65
2023/01/11 12:58:55;;;;;;;11.63;5.25;;;8.40;99.90;;;;;;5067181;28;20844;-67
2023/01/11 13:01:36;;;;;;;9.45;5.93;;;8.40;99.90;;;;;;5067565;28;20056;-68
2023/01/11 13:04:01;;;;;;;12.82;5.85;;;8.50;99.90;;;;;;5069323;28;20031;-66
2023/01/11 13:06:48;;;;;;;10.50;5.47;;;8.40;99.90;;;;;;5066252;28;20028;-66
2023/01/11 13:09:51;;;;;;;14.25;6.45;;;8.40;99.90;;;;;;5061720;28;20342;-66
2023/01/11 13:12:27;;;;;;;11.07;5.57;;;8.40;99.90;;;;;;5066025;28;20071;-68
2023/01/11 13:15:13;;;;;;;7.85;5.38;;;8.20;99.90;;;;;;5066312;28;20089;-69
2023/01/11 13:17:51;;;;;;;10.02;5.78;;;8.20;99.90;;;;;;5066348;28;20146;-69
2023/01/11 13:20:36;;;;;;;10.32;5.32;;;8.30;99.90;;;;;;5064831;28;20391;-68
2023/01/11 13:23:08;;;;;;;12.32;5.93;;;8.30;99.90;;;;;;5065164;28;20169;-68
2023/01/11 13:25:38;;;;;;;10.18;5.55;;;8.30;99.90;;;;;;5066447;28;20101;-69
2023/01/11 13:28:20;;;;;;;13.77;6.32;;;8.20;99.90;;;;;;5068171;28;20032;-66
2023/01/11 13:30:47;;;;;;;9.90;5.85;;;8.30;99.90;;;;;;5063707;28;20031;-65
2023/01/11 13:33:21;;;;;;;13.35;6.15;;;8.30;99.90;;;;;;5064057;28;20482;-68
2023/01/11 13:35:55;;;;;;;10.10;6.32;;;8.30;99.90;;;;;;5065999;28;20025;-69
2023/01/11 13:38:36;;;;;;;14.85;6.15;;;8.40;99.90;;;;;;5064342;28;20036;-66
2023/01/11 13:41:15;;;;;;;14.70;6.28;;;8.30;99.90;;;;;;5068263;28;20025;-68
2023/01/11 13:43:58;;;;;;;13.23;7.07;;;8.20;99.90;;;;;;5063995;28;20025;-71
2023/01/11 13:46:45;;;;;;;12.38;7.13;;;8.40;99.90;;;;;;5064513;28;20152;-69
2023/01/11 13:49:17;;;;;;;14.43;7.22;;;8.40;99.90;;;;;;5062429;28;20361;-70
2023/01/11 13:51:50;;;;;;;14.45;7.28;;;8.50;99.90;;;;;;5062543;28;20036;-69
2023/01/11 13:54:24;;;;;;;16.10;9.18;;;8.50;99.90;;;;;;5064164;28;20522;-67